sensor_id;sensor_type;location;lat;lon;timestamp;P1;durP1;ratioP1;P2;durP2;ratioP2
19731;SDS011;10017;54.350;18.532;2022-07-29T00:00:40;10.53;;;5.73;;
19731;SDS011;10017;54.350;18.532;2022-07-29T00:03:15;8.20;;;5.23;;
19731;SDS011;10017;54.350;18.532;2022-07-29T00:05:47;12.93;;;5.93;;
19731;SDS011;10017;54.350;18.532;2022-07-29T00:08:22;12.50;;;5.23;;
19731;SDS011;10017;54.350;18.532;2022-07-29T00:10:55;13.47;;;6.10;;
19731;SDS011;10017;54.350;18.532;2022-07-29T00:13:29;11.90;;;5.50;;
19731;SDS011;10017;54.350;18.532;2022-07-29T00:16:02;9.17;;;5.10;;
19731;SDS011;10017;54.350;18.532;2022-07-29T00:18:35;11.23;;;5.00;;
19731;SDS011;10017;54.350;18.532;2022-07-29T00:21:10;8.60;;;5.07;;
19731;SDS011;10017;54.350;18.532;2022-07-29T00:23:42;11.63;;;5.57;;
19731;SDS011;10017;54.350;18.532;2022-07-29T00:26:14;13.47;;;5.23;;
19731;SDS011;10017;54.350;18.532;2022-07-29T00:28:46;9.30;;;5.27;;
19731;SDS011;10017;54.350;18.532;2022-07-29T00:31:18;10.53;;;5.20;;
19731;SDS011;10017;54.350;18.532;2022-07-29T00:33:50;9.47;;;4.43;;
19731;SDS011;10017;54.350;18.532;2022-07-29T00:36:22;11.23;;;5.63;;
19731;SDS011;10017;54.350;18.532;2022-07-29T00:38:54;11.60;;;6.07;;
19731;SDS011;10017;54.350;18.532;2022-07-29T00:41:26;9.23;;;5.30;;
19731;SDS011;10017;54.350;18.532;2022-07-29T00:43:58;11.60;;;5.57;;
19731;SDS011;10017;54.350;18.532;2022-07-29T00:46:30;10.40;;;5.53;;
19731;SDS011;10017;54.350;18.532;2022-07-29T00:49:02;12.37;;;5.20;;
19731;SDS011;10017;54.350;18.532;2022-07-29T00:51:37;7.47;;;5.13;;
19731;SDS011;10017;54.350;18.532;2022-07-29T00:54:12;8.20;;;4.93;;
19731;SDS011;10017;54.350;18.532;2022-07-29T00:56:44;13.23;;;6.07;;
19731;SDS011;10017;54.350;18.532;2022-07-29T00:59:16;13.53;;;6.20;;
19731;SDS011;10017;54.350;18.532;2022-07-29T01:01:48;11.63;;;6.07;;
19731;SDS011;10017;54.350;18.532;2022-07-29T01:04:20;10.67;;;6.53;;
19731;SDS011;10017;54.350;18.532;2022-07-29T01:06:53;9.60;;;6.23;;
19731;SDS011;10017;54.350;18.532;2022-07-29T01:09:28;14.50;;;6.53;;
19731;SDS011;10017;54.350;18.532;2022-07-29T01:12:17;12.80;;;5.67;;
19731;SDS011;10017;54.350;18.532;2022-07-29T01:14:57;13.87;;;6.57;;
19731;SDS011;10017;54.350;18.532;2022-07-29T01:17:42;12.27;;;6.60;;
19731;SDS011;10017;54.350;18.532;2022-07-29T01:20:25;8.67;;;5.83;;
19731;SDS011;10017;54.350;18.532;2022-07-29T01:26:26;13.30;;;6.57;;
19731;SDS011;10017;54.350;18.532;2022-07-29T01:29:05;11.10;;;6.00;;
19731;SDS011;10017;54.350;18.532;2022-07-29T01:31:51;10.47;;;6.47;;
19731;SDS011;10017;54.350;18.532;2022-07-29T01:34:35;13.97;;;6.47;;
19731;SDS011;10017;54.350;18.532;2022-07-29T01:37:24;12.33;;;6.07;;
19731;SDS011;10017;54.350;18.532;2022-07-29T01:40:01;12.37;;;6.37;;
19731;SDS011;10017;54.350;18.532;2022-07-29T01:42:36;10.93;;;6.70;;
19731;SDS011;10017;54.350;18.532;2022-07-29T01:45:17;14.53;;;6.73;;
19731;SDS011;10017;54.350;18.532;2022-07-29T01:48:15;11.00;;;6.27;;
19731;SDS011;10017;54.350;18.532;2022-07-29T01:51:01;13.67;;;6.47;;
19731;SDS011;10017;54.350;18.532;2022-07-29T01:54:04;13.27;;;6.67;;
19731;SDS011;10017;54.350;18.532;2022-07-29T01:56:45;12.33;;;6.33;;
19731;SDS011;10017;54.350;18.532;2022-07-29T01:59:20;12.90;;;5.77;;
19731;SDS011;10017;54.350;18.532;2022-07-29T02:01:54;12.83;;;6.50;;
19731;SDS011;10017;54.350;18.532;2022-07-29T02:04:32;12.53;;;6.60;;
19731;SDS011;10017;54.350;18.532;2022-07-29T02:07:10;11.03;;;5.80;;
19731;SDS011;10017;54.350;18.532;2022-07-29T02:09:47;9.37;;;6.20;;
19731;SDS011;10017;54.350;18.532;2022-07-29T02:12:20;8.70;;;5.13;;
19731;SDS011;10017;54.350;18.532;2022-07-29T02:14:54;9.40;;;6.13;;
19731;SDS011;10017;54.350;18.532;2022-07-29T02:17:32;11.27;;;6.17;;
19731;SDS011;10017;54.350;18.532;2022-07-29T02:20:10;12.33;;;5.93;;
19731;SDS011;10017;54.350;18.532;2022-07-29T02:22:44;10.87;;;5.93;;
19731;SDS011;10017;54.350;18.532;2022-07-29T02:25:18;9.63;;;5.77;;
19731;SDS011;10017;54.350;18.532;2022-07-29T02:27:54;11.93;;;6.27;;
19731;SDS011;10017;54.350;18.532;2022-07-29T02:30:27;11.93;;;6.40;;
19731;SDS011;10017;54.350;18.532;2022-07-29T02:33:00;11.23;;;5.90;;
19731;SDS011;10017;54.350;18.532;2022-07-29T02:35:34;12.87;;;6.63;;
19731;SDS011;10017;54.350;18.532;2022-07-29T02:38:07;10.47;;;6.50;;
19731;SDS011;10017;54.350;18.532;2022-07-29T02:41:03;12.77;;;6.30;;
19731;SDS011;10017;54.350;18.532;2022-07-29T02:43:39;11.40;;;7.23;;
19731;SDS011;10017;54.350;18.532;2022-07-29T02:46:14;10.47;;;6.40;;
19731;SDS011;10017;54.350;18.532;2022-07-29T02:58:02;10.07;;;5.87;;
19731;SDS011;10017;54.350;18.532;2022-07-29T03:00:41;11.43;;;6.43;;
19731;SDS011;10017;54.350;18.532;2022-07-29T03:03:16;10.07;;;6.80;;
19731;SDS011;10017;54.350;18.532;2022-07-29T03:05:54;9.93;;;6.20;;
19731;SDS011;10017;54.350;18.532;2022-07-29T03:08:28;12.90;;;7.00;;
19731;SDS011;10017;54.350;18.532;2022-07-29T03:11:00;11.33;;;6.87;;
19731;SDS011;10017;54.350;18.532;2022-07-29T03:13:33;11.70;;;6.93;;
19731;SDS011;10017;54.350;18.532;2022-07-29T03:16:06;10.90;;;6.07;;
19731;SDS011;10017;54.350;18.532;2022-07-29T03:18:42;14.80;;;7.10;;
19731;SDS011;10017;54.350;18.532;2022-07-29T03:21:14;10.80;;;6.27;;
19731;SDS011;10017;54.350;18.532;2022-07-29T03:23:46;8.77;;;5.80;;
19731;SDS011;10017;54.350;18.532;2022-07-29T03:26:19;9.03;;;5.77;;
19731;SDS011;10017;54.350;18.532;2022-07-29T03:28:50;9.30;;;6.20;;
19731;SDS011;10017;54.350;18.532;2022-07-29T03:31:22;8.87;;;6.13;;
19731;SDS011;10017;54.350;18.532;2022-07-29T03:33:54;9.23;;;5.97;;
19731;SDS011;10017;54.350;18.532;2022-07-29T03:36:27;9.83;;;6.30;;
19731;SDS011;10017;54.350;18.532;2022-07-29T03:38:59;10.00;;;5.73;;
19731;SDS011;10017;54.350;18.532;2022-07-29T03:41:32;12.37;;;7.30;;
19731;SDS011;10017;54.350;18.532;2022-07-29T03:44:06;11.83;;;6.53;;
19731;SDS011;10017;54.350;18.532;2022-07-29T03:46:42;9.07;;;6.63;;
19731;SDS011;10017;54.350;18.532;2022-07-29T03:49:18;9.77;;;6.73;;
19731;SDS011;10017;54.350;18.532;2022-07-29T03:51:51;15.00;;;7.47;;
19731;SDS011;10017;54.350;18.532;2022-07-29T03:54:23;8.50;;;5.60;;
19731;SDS011;10017;54.350;18.532;2022-07-29T03:56:59;13.37;;;7.13;;
19731;SDS011;10017;54.350;18.532;2022-07-29T03:59:35;12.13;;;6.03;;
19731;SDS011;10017;54.350;18.532;2022-07-29T04:02:09;11.10;;;5.97;;
19731;SDS011;10017;54.350;18.532;2022-07-29T04:04:42;8.33;;;5.93;;
19731;SDS011;10017;54.350;18.532;2022-07-29T04:07:15;9.67;;;6.17;;
19731;SDS011;10017;54.350;18.532;2022-07-29T04:09:47;9.37;;;5.87;;
19731;SDS011;10017;54.350;18.532;2022-07-29T04:12:19;7.03;;;5.20;;
19731;SDS011;10017;54.350;18.532;2022-07-29T04:14:52;10.43;;;5.50;;
19731;SDS011;10017;54.350;18.532;2022-07-29T04:17:26;9.20;;;5.27;;
19731;SDS011;10017;54.350;18.532;2022-07-29T04:19:58;11.53;;;6.47;;
19731;SDS011;10017;54.350;18.532;2022-07-29T04:22:30;15.40;;;6.80;;
19731;SDS011;10017;54.350;18.532;2022-07-29T04:25:02;11.40;;;6.43;;
19731;SDS011;10017;54.350;18.532;2022-07-29T04:27:35;10.83;;;5.30;;
19731;SDS011;10017;54.350;18.532;2022-07-29T04:30:27;12.50;;;6.60;;
19731;SDS011;10017;54.350;18.532;2022-07-29T04:33:04;12.37;;;5.63;;
19731;SDS011;10017;54.350;18.532;2022-07-29T04:35:39;8.60;;;5.37;;
19731;SDS011;10017;54.350;18.532;2022-07-29T04:38:22;7.87;;;5.20;;
19731;SDS011;10017;54.350;18.532;2022-07-29T04:40:54;11.73;;;5.90;;
19731;SDS011;10017;54.350;18.532;2022-07-29T04:43:26;10.93;;;5.40;;
19731;SDS011;10017;54.350;18.532;2022-07-29T04:46:09;11.47;;;6.53;;
19731;SDS011;10017;54.350;18.532;2022-07-29T04:48:41;11.93;;;5.33;;
19731;SDS011;10017;54.350;18.532;2022-07-29T04:51:16;10.20;;;4.97;;
19731;SDS011;10017;54.350;18.532;2022-07-29T04:53:48;9.90;;;4.90;;
19731;SDS011;10017;54.350;18.532;2022-07-29T04:56:20;12.83;;;6.23;;
19731;SDS011;10017;54.350;18.532;2022-07-29T04:58:55;10.47;;;5.50;;
19731;SDS011;10017;54.350;18.532;2022-07-29T05:01:27;8.07;;;4.87;;
19731;SDS011;10017;54.350;18.532;2022-07-29T05:04:01;8.67;;;4.57;;
19731;SDS011;10017;54.350;18.532;2022-07-29T05:06:33;8.97;;;4.80;;
19731;SDS011;10017;54.350;18.532;2022-07-29T05:09:05;9.43;;;4.30;;
19731;SDS011;10017;54.350;18.532;2022-07-29T05:11:37;12.25;;;3.70;;
19731;SDS011;10017;54.350;18.532;2022-07-29T05:14:09;6.47;;;3.03;;
19731;SDS011;10017;54.350;18.532;2022-07-29T05:16:41;4.47;;;2.07;;
19731;SDS011;10017;54.350;18.532;2022-07-29T05:19:14;7.10;;;2.65;;
19731;SDS011;10017;54.350;18.532;2022-07-29T05:21:46;7.13;;;2.33;;
19731;SDS011;10017;54.350;18.532;2022-07-29T05:24:19;7.82;;;2.13;;
19731;SDS011;10017;54.350;18.532;2022-07-29T05:26:50;5.00;;;1.95;;
19731;SDS011;10017;54.350;18.532;2022-07-29T05:29:23;5.00;;;2.00;;
19731;SDS011;10017;54.350;18.532;2022-07-29T05:32:15;5.65;;;2.08;;
19731;SDS011;10017;54.350;18.532;2022-07-29T05:34:47;12.55;;;2.40;;
19731;SDS011;10017;54.350;18.532;2022-07-29T05:37:21;9.70;;;2.03;;
19731;SDS011;10017;54.350;18.532;2022-07-29T05:39:54;8.57;;;2.20;;
19731;SDS011;10017;54.350;18.532;2022-07-29T05:42:29;4.95;;;1.92;;
19731;SDS011;10017;54.350;18.532;2022-07-29T05:45:01;6.82;;;2.00;;
19731;SDS011;10017;54.350;18.532;2022-07-29T05:47:34;6.60;;;1.70;;
19731;SDS011;10017;54.350;18.532;2022-07-29T05:50:06;4.88;;;1.67;;
19731;SDS011;10017;54.350;18.532;2022-07-29T05:52:42;5.03;;;1.40;;
19731;SDS011;10017;54.350;18.532;2022-07-29T05:55:14;2.83;;;1.23;;
19731;SDS011;10017;54.350;18.532;2022-07-29T05:57:48;5.28;;;1.70;;
19731;SDS011;10017;54.350;18.532;2022-07-29T06:00:20;3.35;;;1.65;;
19731;SDS011;10017;54.350;18.532;2022-07-29T06:02:54;6.30;;;1.50;;
19731;SDS011;10017;54.350;18.532;2022-07-29T06:05:26;5.75;;;1.65;;
19731;SDS011;10017;54.350;18.532;2022-07-29T06:07:59;5.63;;;1.10;;
19731;SDS011;10017;54.350;18.532;2022-07-29T06:10:31;3.47;;;1.23;;
19731;SDS011;10017;54.350;18.532;2022-07-29T06:13:03;2.88;;;1.00;;
19731;SDS011;10017;54.350;18.532;2022-07-29T06:15:35;5.90;;;1.02;;
19731;SDS011;10017;54.350;18.532;2022-07-29T06:18:07;0.88;;;0.40;;
19731;SDS011;10017;54.350;18.532;2022-07-29T06:20:41;3.30;;;0.50;;
19731;SDS011;10017;54.350;18.532;2022-07-29T06:23:13;2.50;;;0.50;;
19731;SDS011;10017;54.350;18.532;2022-07-29T06:25:45;1.98;;;0.50;;
19731;SDS011;10017;54.350;18.532;2022-07-29T06:28:17;3.00;;;0.68;;
19731;SDS011;10017;54.350;18.532;2022-07-29T06:30:50;4.80;;;0.47;;
19731;SDS011;10017;54.350;18.532;2022-07-29T06:33:22;0.88;;;0.40;;
19731;SDS011;10017;54.350;18.532;2022-07-29T06:35:54;3.35;;;0.30;;
19731;SDS011;10017;54.350;18.532;2022-07-29T06:38:27;2.05;;;0.47;;
19731;SDS011;10017;54.350;18.532;2022-07-29T06:41:04;1.75;;;0.70;;
19731;SDS011;10017;54.350;18.532;2022-07-29T06:43:44;1.13;;;0.40;;
19731;SDS011;10017;54.350;18.532;2022-07-29T06:46:27;2.38;;;0.38;;
19731;SDS011;10017;54.350;18.532;2022-07-29T06:49:01;1.13;;;0.60;;
19731;SDS011;10017;54.350;18.532;2022-07-29T06:51:34;2.55;;;0.35;;
19731;SDS011;10017;54.350;18.532;2022-07-29T06:54:05;1.60;;;0.20;;
19731;SDS011;10017;54.350;18.532;2022-07-29T06:56:37;1.70;;;0.50;;
19731;SDS011;10017;54.350;18.532;2022-07-29T06:59:15;3.78;;;0.73;;
19731;SDS011;10017;54.350;18.532;2022-07-29T07:01:53;1.17;;;0.30;;
19731;SDS011;10017;54.350;18.532;2022-07-29T07:04:25;1.83;;;0.47;;
19731;SDS011;10017;54.350;18.532;2022-07-29T07:06:57;0.77;;;0.30;;
19731;SDS011;10017;54.350;18.532;2022-07-29T07:09:30;1.02;;;0.30;;
19731;SDS011;10017;54.350;18.532;2022-07-29T07:12:13;0.73;;;0.30;;
19731;SDS011;10017;54.350;18.532;2022-07-29T07:14:45;1.23;;;0.50;;
19731;SDS011;10017;54.350;18.532;2022-07-29T07:17:19;2.38;;;0.50;;
19731;SDS011;10017;54.350;18.532;2022-07-29T07:19:51;5.28;;;0.55;;
19731;SDS011;10017;54.350;18.532;2022-07-29T07:22:23;1.38;;;0.52;;
19731;SDS011;10017;54.350;18.532;2022-07-29T07:24:55;0.88;;;0.40;;
19731;SDS011;10017;54.350;18.532;2022-07-29T07:27:30;2.13;;;0.30;;
19731;SDS011;10017;54.350;18.532;2022-07-29T07:30:03;1.75;;;0.38;;
19731;SDS011;10017;54.350;18.532;2022-07-29T07:32:39;1.45;;;0.40;;
19731;SDS011;10017;54.350;18.532;2022-07-29T07:35:11;2.65;;;0.22;;
19731;SDS011;10017;54.350;18.532;2022-07-29T07:37:43;1.42;;;0.40;;
19731;SDS011;10017;54.350;18.532;2022-07-29T07:40:17;5.18;;;0.50;;
19731;SDS011;10017;54.350;18.532;2022-07-29T07:42:49;1.05;;;0.32;;
19731;SDS011;10017;54.350;18.532;2022-07-29T07:45:22;2.22;;;0.45;;
19731;SDS011;10017;54.350;18.532;2022-07-29T07:47:54;0.65;;;0.30;;
19731;SDS011;10017;54.350;18.532;2022-07-29T07:50:29;2.47;;;0.57;;
19731;SDS011;10017;54.350;18.532;2022-07-29T07:53:01;1.48;;;0.40;;
19731;SDS011;10017;54.350;18.532;2022-07-29T07:55:33;0.68;;;0.20;;
19731;SDS011;10017;54.350;18.532;2022-07-29T07:58:30;1.20;;;0.30;;
19731;SDS011;10017;54.350;18.532;2022-07-29T08:01:02;1.55;;;0.30;;
19731;SDS011;10017;54.350;18.532;2022-07-29T08:03:35;0.73;;;0.30;;
19731;SDS011;10017;54.350;18.532;2022-07-29T08:06:10;2.38;;;0.40;;
19731;SDS011;10017;54.350;18.532;2022-07-29T08:08:42;1.42;;;0.45;;
19731;SDS011;10017;54.350;18.532;2022-07-29T08:11:18;2.15;;;0.30;;
19731;SDS011;10017;54.350;18.532;2022-07-29T08:13:51;4.53;;;0.50;;
19731;SDS011;10017;54.350;18.532;2022-07-29T08:16:23;0.57;;;0.20;;
19731;SDS011;10017;54.350;18.532;2022-07-29T08:18:56;0.75;;;0.20;;
19731;SDS011;10017;54.350;18.532;2022-07-29T08:21:28;2.15;;;0.38;;
19731;SDS011;10017;54.350;18.532;2022-07-29T08:24:00;1.45;;;0.25;;
19731;SDS011;10017;54.350;18.532;2022-07-29T08:26:50;1.98;;;0.38;;
19731;SDS011;10017;54.350;18.532;2022-07-29T08:29:24;2.83;;;0.50;;
19731;SDS011;10017;54.350;18.532;2022-07-29T08:31:56;2.13;;;0.38;;
19731;SDS011;10017;54.350;18.532;2022-07-29T08:34:29;3.45;;;0.50;;
19731;SDS011;10017;54.350;18.532;2022-07-29T08:37:01;2.42;;;0.50;;
19731;SDS011;10017;54.350;18.532;2022-07-29T08:39:35;2.65;;;0.30;;
19731;SDS011;10017;54.350;18.532;2022-07-29T08:42:07;1.92;;;0.40;;
19731;SDS011;10017;54.350;18.532;2022-07-29T08:44:40;2.08;;;0.25;;
19731;SDS011;10017;54.350;18.532;2022-07-29T08:47:15;1.95;;;0.50;;
19731;SDS011;10017;54.350;18.532;2022-07-29T08:49:48;1.30;;;0.40;;
19731;SDS011;10017;54.350;18.532;2022-07-29T08:52:19;3.60;;;1.67;;
19731;SDS011;10017;54.350;18.532;2022-07-29T08:54:53;0.80;;;0.47;;
19731;SDS011;10017;54.350;18.532;2022-07-29T08:57:27;1.75;;;0.30;;
19731;SDS011;10017;54.350;18.532;2022-07-29T09:00:05;1.38;;;0.57;;
19731;SDS011;10017;54.350;18.532;2022-07-29T09:02:43;2.25;;;0.40;;
19731;SDS011;10017;54.350;18.532;2022-07-29T09:05:23;3.05;;;0.20;;
19731;SDS011;10017;54.350;18.532;2022-07-29T09:07:59;0.60;;;0.40;;
19731;SDS011;10017;54.350;18.532;2022-07-29T09:10:34;1.90;;;0.30;;
19731;SDS011;10017;54.350;18.532;2022-07-29T09:13:06;2.85;;;0.50;;
19731;SDS011;10017;54.350;18.532;2022-07-29T09:15:39;3.65;;;0.50;;
19731;SDS011;10017;54.350;18.532;2022-07-29T09:18:11;2.30;;;0.40;;
19731;SDS011;10017;54.350;18.532;2022-07-29T09:20:52;1.15;;;0.20;;
19731;SDS011;10017;54.350;18.532;2022-07-29T09:26:38;2.70;;;0.47;;
19731;SDS011;10017;54.350;18.532;2022-07-29T09:29:17;3.38;;;0.50;;
19731;SDS011;10017;54.350;18.532;2022-07-29T09:31:51;4.03;;;1.02;;
19731;SDS011;10017;54.350;18.532;2022-07-29T09:34:26;3.42;;;0.60;;
19731;SDS011;10017;54.350;18.532;2022-07-29T09:36:59;5.03;;;0.50;;
19731;SDS011;10017;54.350;18.532;2022-07-29T09:39:42;2.28;;;0.63;;
19731;SDS011;10017;54.350;18.532;2022-07-29T09:42:29;1.60;;;0.60;;
19731;SDS011;10017;54.350;18.532;2022-07-29T09:45:05;2.53;;;0.55;;
19731;SDS011;10017;54.350;18.532;2022-07-29T09:47:41;2.55;;;0.57;;
19731;SDS011;10017;54.350;18.532;2022-07-29T09:50:20;3.05;;;0.80;;
19731;SDS011;10017;54.350;18.532;2022-07-29T09:52:55;1.17;;;0.50;;
19731;SDS011;10017;54.350;18.532;2022-07-29T09:55:27;1.98;;;0.50;;
19731;SDS011;10017;54.350;18.532;2022-07-29T09:58:14;2.47;;;0.60;;
19731;SDS011;10017;54.350;18.532;2022-07-29T10:00:48;4.47;;;0.80;;
19731;SDS011;10017;54.350;18.532;2022-07-29T10:03:28;3.47;;;0.57;;
19731;SDS011;10017;54.350;18.532;2022-07-29T10:06:09;4.90;;;0.70;;
19731;SDS011;10017;54.350;18.532;2022-07-29T10:08:42;2.70;;;0.60;;
19731;SDS011;10017;54.350;18.532;2022-07-29T10:11:15;1.30;;;0.60;;
19731;SDS011;10017;54.350;18.532;2022-07-29T10:13:48;2.97;;;0.65;;
19731;SDS011;10017;54.350;18.532;2022-07-29T10:16:20;0.85;;;0.50;;
19731;SDS011;10017;54.350;18.532;2022-07-29T10:18:52;0.75;;;0.45;;
19731;SDS011;10017;54.350;18.532;2022-07-29T10:21:27;2.92;;;0.80;;
19731;SDS011;10017;54.350;18.532;2022-07-29T10:24:06;3.50;;;0.43;;
19731;SDS011;10017;54.350;18.532;2022-07-29T10:26:45;3.88;;;0.70;;
19731;SDS011;10017;54.350;18.532;2022-07-29T10:29:20;2.05;;;0.50;;
19731;SDS011;10017;54.350;18.532;2022-07-29T10:34:57;4.32;;;0.50;;
19731;SDS011;10017;54.350;18.532;2022-07-29T10:41:02;1.77;;;0.50;;
19731;SDS011;10017;54.350;18.532;2022-07-29T10:46:53;2.97;;;0.50;;
19731;SDS011;10017;54.350;18.532;2022-07-29T10:49:26;2.78;;;0.80;;
19731;SDS011;10017;54.350;18.532;2022-07-29T10:52:02;3.85;;;0.60;;
19731;SDS011;10017;54.350;18.532;2022-07-29T10:54:40;2.55;;;0.30;;
19731;SDS011;10017;54.350;18.532;2022-07-29T11:02:58;1.67;;;0.30;;
19731;SDS011;10017;54.350;18.532;2022-07-29T11:05:54;2.85;;;0.65;;
19731;SDS011;10017;54.350;18.532;2022-07-29T11:08:47;2.90;;;0.77;;
19731;SDS011;10017;54.350;18.532;2022-07-29T11:15:22;3.88;;;0.40;;
19731;SDS011;10017;54.350;18.532;2022-07-29T11:20:47;7.45;;;0.55;;
19731;SDS011;10017;54.350;18.532;2022-07-29T11:23:23;3.35;;;0.47;;
19731;SDS011;10017;54.350;18.532;2022-07-29T11:26:17;1.98;;;0.38;;
19731;SDS011;10017;54.350;18.532;2022-07-29T11:28:59;2.08;;;0.43;;
19731;SDS011;10017;54.350;18.532;2022-07-29T11:31:46;2.40;;;0.52;;
19731;SDS011;10017;54.350;18.532;2022-07-29T11:34:26;2.40;;;0.40;;
19731;SDS011;10017;54.350;18.532;2022-07-29T11:45:19;3.72;;;0.40;;
19731;SDS011;10017;54.350;18.532;2022-07-29T11:48:17;5.32;;;0.55;;
19731;SDS011;10017;54.350;18.532;2022-07-29T11:51:08;0.82;;;0.40;;
19731;SDS011;10017;54.350;18.532;2022-07-29T11:53:46;1.73;;;0.40;;
19731;SDS011;10017;54.350;18.532;2022-07-29T11:56:22;2.92;;;0.32;;
19731;SDS011;10017;54.350;18.532;2022-07-29T11:59:02;2.95;;;0.50;;
19731;SDS011;10017;54.350;18.532;2022-07-29T12:01:51;5.15;;;0.38;;
19731;SDS011;10017;54.350;18.532;2022-07-29T12:07:32;2.55;;;0.28;;
19731;SDS011;10017;54.350;18.532;2022-07-29T12:10:06;1.30;;;0.30;;
19731;SDS011;10017;54.350;18.532;2022-07-29T12:12:52;1.60;;;0.40;;
19731;SDS011;10017;54.350;18.532;2022-07-29T12:15:25;7.53;;;3.33;;
19731;SDS011;10017;54.350;18.532;2022-07-29T12:18:17;1.98;;;0.52;;
19731;SDS011;10017;54.350;18.532;2022-07-29T12:21:01;2.65;;;0.50;;
19731;SDS011;10017;54.350;18.532;2022-07-29T12:23:37;2.88;;;0.55;;
19731;SDS011;10017;54.350;18.532;2022-07-29T12:26:08;3.63;;;0.47;;
19731;SDS011;10017;54.350;18.532;2022-07-29T12:28:56;4.38;;;0.43;;
19731;SDS011;10017;54.350;18.532;2022-07-29T12:31:32;2.17;;;0.30;;
19731;SDS011;10017;54.350;18.532;2022-07-29T12:34:15;1.55;;;0.50;;
19731;SDS011;10017;54.350;18.532;2022-07-29T12:36:47;3.10;;;0.30;;
19731;SDS011;10017;54.350;18.532;2022-07-29T12:39:20;2.65;;;0.60;;
19731;SDS011;10017;54.350;18.532;2022-07-29T12:41:57;1.88;;;0.50;;
19731;SDS011;10017;54.350;18.532;2022-07-29T12:44:50;2.78;;;0.40;;
19731;SDS011;10017;54.350;18.532;2022-07-29T12:47:22;2.03;;;0.30;;
19731;SDS011;10017;54.350;18.532;2022-07-29T12:50:11;1.27;;;0.50;;
19731;SDS011;10017;54.350;18.532;2022-07-29T12:52:46;0.43;;;0.22;;
19731;SDS011;10017;54.350;18.532;2022-07-29T12:58:13;1.05;;;0.40;;
19731;SDS011;10017;54.350;18.532;2022-07-29T13:01:10;2.13;;;0.43;;
19731;SDS011;10017;54.350;18.532;2022-07-29T13:03:51;2.30;;;0.60;;
19731;SDS011;10017;54.350;18.532;2022-07-29T13:06:42;0.75;;;0.40;;
19731;SDS011;10017;54.350;18.532;2022-07-29T13:09:21;0.80;;;0.50;;
19731;SDS011;10017;54.350;18.532;2022-07-29T13:12:05;0.25;;;0.25;;
19731;SDS011;10017;54.350;18.532;2022-07-29T13:14:42;1.95;;;0.43;;
19731;SDS011;10017;54.350;18.532;2022-07-29T13:17:16;3.35;;;0.40;;
19731;SDS011;10017;54.350;18.532;2022-07-29T13:19:52;3.58;;;0.47;;
19731;SDS011;10017;54.350;18.532;2022-07-29T13:22:41;1.30;;;0.50;;
19731;SDS011;10017;54.350;18.532;2022-07-29T13:25:13;1.77;;;0.68;;
19731;SDS011;10017;54.350;18.532;2022-07-29T13:27:45;2.80;;;0.40;;
19731;SDS011;10017;54.350;18.532;2022-07-29T13:30:17;0.95;;;0.45;;
19731;SDS011;10017;54.350;18.532;2022-07-29T13:32:49;0.85;;;0.30;;
19731;SDS011;10017;54.350;18.532;2022-07-29T13:35:24;1.00;;;0.40;;
19731;SDS011;10017;54.350;18.532;2022-07-29T13:37:56;2.67;;;0.70;;
19731;SDS011;10017;54.350;18.532;2022-07-29T13:40:28;0.40;;;0.30;;
19731;SDS011;10017;54.350;18.532;2022-07-29T13:43:01;2.58;;;0.40;;
19731;SDS011;10017;54.350;18.532;2022-07-29T13:45:35;0.20;;;0.20;;
19731;SDS011;10017;54.350;18.532;2022-07-29T13:48:07;0.95;;;0.28;;
19731;SDS011;10017;54.350;18.532;2022-07-29T13:50:39;2.40;;;0.30;;
19731;SDS011;10017;54.350;18.532;2022-07-29T13:53:14;1.85;;;0.30;;
19731;SDS011;10017;54.350;18.532;2022-07-29T13:55:48;1.00;;;0.40;;
19731;SDS011;10017;54.350;18.532;2022-07-29T13:58:20;0.90;;;0.30;;
19731;SDS011;10017;54.350;18.532;2022-07-29T14:00:55;2.47;;;0.32;;
19731;SDS011;10017;54.350;18.532;2022-07-29T14:03:28;1.77;;;0.30;;
19731;SDS011;10017;54.350;18.532;2022-07-29T14:06:00;2.60;;;0.40;;
19731;SDS011;10017;54.350;18.532;2022-07-29T14:08:32;0.73;;;0.30;;
19731;SDS011;10017;54.350;18.532;2022-07-29T14:11:04;0.90;;;0.30;;
19731;SDS011;10017;54.350;18.532;2022-07-29T14:13:38;0.95;;;0.35;;
19731;SDS011;10017;54.350;18.532;2022-07-29T14:16:10;1.08;;;0.40;;
19731;SDS011;10017;54.350;18.532;2022-07-29T14:18:43;1.17;;;0.20;;
19731;SDS011;10017;54.350;18.532;2022-07-29T14:21:15;0.95;;;0.40;;
19731;SDS011;10017;54.350;18.532;2022-07-29T14:23:48;2.15;;;0.40;;
19731;SDS011;10017;54.350;18.532;2022-07-29T14:26:23;1.60;;;0.47;;
19731;SDS011;10017;54.350;18.532;2022-07-29T14:29:00;0.93;;;0.30;;
19731;SDS011;10017;54.350;18.532;2022-07-29T14:31:34;0.57;;;0.25;;
19731;SDS011;10017;54.350;18.532;2022-07-29T14:34:06;2.00;;;0.40;;
19731;SDS011;10017;54.350;18.532;2022-07-29T14:36:38;0.77;;;0.28;;
19731;SDS011;10017;54.350;18.532;2022-07-29T14:39:10;2.15;;;0.30;;
19731;SDS011;10017;54.350;18.532;2022-07-29T14:41:42;1.27;;;0.30;;
19731;SDS011;10017;54.350;18.532;2022-07-29T14:44:15;1.60;;;0.70;;
19731;SDS011;10017;54.350;18.532;2022-07-29T14:46:49;2.33;;;0.30;;
19731;SDS011;10017;54.350;18.532;2022-07-29T14:49:23;4.85;;;0.40;;
19731;SDS011;10017;54.350;18.532;2022-07-29T14:51:56;0.60;;;0.38;;
19731;SDS011;10017;54.350;18.532;2022-07-29T14:54:28;1.33;;;0.40;;
19731;SDS011;10017;54.350;18.532;2022-07-29T14:57:00;1.10;;;0.35;;
19731;SDS011;10017;54.350;18.532;2022-07-29T14:59:32;1.30;;;0.40;;
19731;SDS011;10017;54.350;18.532;2022-07-29T15:02:04;0.60;;;0.35;;
19731;SDS011;10017;54.350;18.532;2022-07-29T15:04:36;0.88;;;0.35;;
19731;SDS011;10017;54.350;18.532;2022-07-29T15:07:08;1.65;;;0.45;;
19731;SDS011;10017;54.350;18.532;2022-07-29T15:09:42;1.13;;;0.20;;
19731;SDS011;10017;54.350;18.532;2022-07-29T15:12:20;1.23;;;0.30;;
19731;SDS011;10017;54.350;18.532;2022-07-29T15:14:52;1.00;;;0.20;;
19731;SDS011;10017;54.350;18.532;2022-07-29T15:17:24;1.45;;;0.30;;
19731;SDS011;10017;54.350;18.532;2022-07-29T15:19:59;0.43;;;0.20;;
19731;SDS011;10017;54.350;18.532;2022-07-29T15:22:31;1.13;;;0.30;;
19731;SDS011;10017;54.350;18.532;2022-07-29T15:25:05;0.40;;;0.20;;
19731;SDS011;10017;54.350;18.532;2022-07-29T15:27:38;2.05;;;0.40;;
19731;SDS011;10017;54.350;18.532;2022-07-29T15:30:10;0.88;;;0.30;;
19731;SDS011;10017;54.350;18.532;2022-07-29T15:33:03;0.40;;;0.20;;
19731;SDS011;10017;54.350;18.532;2022-07-29T15:35:35;2.63;;;0.30;;
19731;SDS011;10017;54.350;18.532;2022-07-29T15:38:11;1.08;;;0.30;;
19731;SDS011;10017;54.350;18.532;2022-07-29T15:40:42;0.45;;;0.30;;
19731;SDS011;10017;54.350;18.532;2022-07-29T15:43:15;1.30;;;0.30;;
19731;SDS011;10017;54.350;18.532;2022-07-29T15:45:47;0.55;;;0.20;;
19731;SDS011;10017;54.350;18.532;2022-07-29T15:48:40;2.45;;;0.20;;
19731;SDS011;10017;54.350;18.532;2022-07-29T15:51:13;0.90;;;0.20;;
19731;SDS011;10017;54.350;18.532;2022-07-29T15:53:45;0.25;;;0.17;;
19731;SDS011;10017;54.350;18.532;2022-07-29T15:56:24;1.48;;;0.20;;
19731;SDS011;10017;54.350;18.532;2022-07-29T15:58:55;1.85;;;0.30;;
19731;SDS011;10017;54.350;18.532;2022-07-29T16:01:28;1.48;;;0.30;;
19731;SDS011;10017;54.350;18.532;2022-07-29T16:04:01;0.35;;;0.10;;
19731;SDS011;10017;54.350;18.532;2022-07-29T16:06:34;2.60;;;0.40;;
19731;SDS011;10017;54.350;18.532;2022-07-29T16:09:09;1.67;;;0.20;;
19731;SDS011;10017;54.350;18.532;2022-07-29T16:11:41;0.32;;;0.25;;